createdAt,value
2023-05-09T00:01:34.339Z,17.83
2023-05-09T00:04:00.617Z,18.42
2023-05-09T00:06:26.838Z,17.65
2023-05-09T00:08:53.140Z,16.98
2023-05-09T00:11:19.409Z,17.50
2023-05-09T00:13:45.733Z,16.80
2023-05-09T00:16:12.022Z,16.67
2023-05-09T00:18:38.300Z,16.42
2023-05-09T00:21:04.551Z,16.38
2023-05-09T00:23:30.992Z,16.38
2023-05-09T00:25:57.218Z,15.93
2023-05-09T00:28:23.482Z,16.45
2023-05-09T00:30:49.718Z,15.50
2023-05-09T00:33:15.972Z,14.05
2023-05-09T00:35:42.489Z,15.05
2023-05-09T00:38:08.802Z,14.02
2023-05-09T00:40:35.176Z,16.13
2023-05-09T00:43:01.466Z,15.98
2023-05-09T00:45:27.735Z,12.85
2023-05-09T00:47:54.047Z,13.88
2023-05-09T00:50:20.386Z,13.38
2023-05-09T00:52:46.610Z,12.32
2023-05-09T00:55:13.003Z,13.15
2023-05-09T00:57:39.427Z,13.90
2023-05-09T01:00:05.668Z,15.40
2023-05-09T01:02:31.979Z,14.02
2023-05-09T01:04:58.358Z,12.00
2023-05-09T01:07:24.610Z,12.43
2023-05-09T01:09:50.895Z,12.05
2023-05-09T01:12:17.122Z,11.30
2023-05-09T01:14:43.375Z,11.00
2023-05-09T01:17:09.642Z,11.75
2023-05-09T01:19:35.897Z,11.82
2023-05-09T01:22:02.201Z,11.35
2023-05-09T01:24:28.432Z,10.63
2023-05-09T01:26:54.683Z,10.10
2023-05-09T01:29:21.018Z,11.10
2023-05-09T01:31:47.468Z,12.63
2023-05-09T01:34:13.891Z,10.75
2023-05-09T01:36:40.123Z,11.13
2023-05-09T01:39:06.445Z,10.50
2023-05-09T01:41:32.754Z,13.23
2023-05-09T01:43:58.996Z,10.80
2023-05-09T01:46:25.336Z,9.57
2023-05-09T01:48:51.609Z,9.75
2023-05-09T01:51:17.906Z,9.95
2023-05-09T01:53:44.148Z,9.98
2023-05-09T01:56:10.409Z,11.15
2023-05-09T01:58:36.648Z,9.38
2023-05-09T02:01:03.095Z,9.23
2023-05-09T02:03:29.620Z,10.88
2023-05-09T02:05:55.949Z,9.55
2023-05-09T02:08:22.325Z,9.45
2023-05-09T02:10:48.859Z,8.60
2023-05-09T02:13:15.225Z,9.82
2023-05-09T02:15:41.577Z,10.68
2023-05-09T02:18:07.844Z,8.93
2023-05-09T02:20:34.060Z,9.63
2023-05-09T02:23:00.328Z,8.40
2023-05-09T02:25:26.557Z,9.05
2023-05-09T02:27:52.786Z,8.50
2023-05-09T02:30:19.058Z,8.27
2023-05-09T02:32:45.371Z,8.68
2023-05-09T02:35:11.716Z,8.23
2023-05-09T02:37:37.983Z,10.10
2023-05-09T02:40:04.250Z,8.20
2023-05-09T02:42:30.557Z,7.85
2023-05-09T02:44:56.990Z,8.90
2023-05-09T02:47:23.301Z,8.13
2023-05-09T02:49:49.544Z,8.23
2023-05-09T02:52:15.818Z,7.50
2023-05-09T02:54:42.047Z,8.77
2023-05-09T02:57:08.367Z,7.47
2023-05-09T02:59:34.595Z,7.15
2023-05-09T03:02:00.890Z,7.90
2023-05-09T03:04:27.138Z,8.55
2023-05-09T03:06:53.463Z,7.65
2023-05-09T03:09:19.715Z,9.00
2023-05-09T03:11:45.957Z,7.80
2023-05-09T03:14:12.213Z,8.00
2023-05-09T03:16:38.472Z,8.65
2023-05-09T03:19:04.747Z,8.32
2023-05-09T03:21:31.124Z,7.72
2023-05-09T03:23:57.369Z,6.72
2023-05-09T03:26:23.580Z,8.45
2023-05-09T03:28:49.933Z,9.25
2023-05-09T03:31:16.357Z,7.82
2023-05-09T03:33:42.668Z,8.70
2023-05-09T03:36:09.008Z,8.90
2023-05-09T03:38:35.264Z,7.55
2023-05-09T03:41:01.565Z,8.13
2023-05-09T03:43:27.795Z,8.10
2023-05-09T03:45:54.050Z,7.47
2023-05-09T03:48:20.309Z,10.77
2023-05-09T03:50:46.625Z,7.38
2023-05-09T03:53:12.898Z,8.32
2023-05-09T03:55:39.167Z,7.45
2023-05-09T03:58:05.430Z,8.68
2023-05-09T04:00:31.702Z,7.47
2023-05-09T04:02:58.013Z,7.95
2023-05-09T04:05:24.342Z,6.90
2023-05-09T04:07:50.642Z,8.90
2023-05-09T04:10:16.870Z,8.25
2023-05-09T04:12:43.105Z,6.55
2023-05-09T04:15:09.423Z,7.45
2023-05-09T04:17:35.806Z,7.88
2023-05-09T04:20:02.294Z,8.73
2023-05-09T04:22:28.690Z,7.20
2023-05-09T04:24:55.409Z,7.70
2023-05-09T04:27:21.644Z,7.68
2023-05-09T04:29:47.909Z,7.22
2023-05-09T04:32:14.170Z,6.90
2023-05-09T04:34:40.437Z,7.70
2023-05-09T04:37:06.682Z,6.63
2023-05-09T04:39:33.047Z,6.78
2023-05-09T04:41:59.262Z,7.53
2023-05-09T04:44:25.520Z,7.63
2023-05-09T04:46:51.749Z,7.10
2023-05-09T04:49:17.978Z,7.55
2023-05-09T04:51:44.218Z,8.48
2023-05-09T04:54:10.440Z,8.65
2023-05-09T04:56:37.074Z,6.68
2023-05-09T04:59:03.505Z,7.50
2023-05-09T05:01:29.792Z,8.18
2023-05-09T05:03:56.049Z,7.95
2023-05-09T05:06:22.316Z,7.65
2023-05-09T05:08:48.598Z,7.85
2023-05-09T05:11:15.120Z,7.78
2023-05-09T05:13:41.367Z,6.20
2023-05-09T05:16:07.696Z,8.13
2023-05-09T05:18:33.998Z,7.50
2023-05-09T05:21:00.302Z,8.00
2023-05-09T05:23:26.807Z,7.43
2023-05-09T05:25:53.199Z,8.15
2023-05-09T05:28:19.450Z,7.75
2023-05-09T05:30:45.693Z,7.93
2023-05-09T05:33:11.945Z,6.97
2023-05-09T05:35:38.287Z,6.57
2023-05-09T05:38:04.521Z,8.50
2023-05-09T05:40:30.777Z,6.93
2023-05-09T05:42:56.989Z,8.32
2023-05-09T05:45:23.239Z,7.53
2023-05-09T05:47:49.592Z,7.85
2023-05-09T05:50:16.540Z,8.05
2023-05-09T05:52:43.023Z,10.57
2023-05-09T05:55:09.319Z,8.10
2023-05-09T05:57:35.684Z,8.20
2023-05-09T06:00:01.958Z,7.70
2023-05-09T06:02:28.828Z,8.30
2023-05-09T06:04:56.179Z,9.95
2023-05-09T06:07:22.572Z,8.20
2023-05-09T06:09:49.608Z,11.23
2023-05-09T06:12:15.849Z,9.70
2023-05-09T06:14:42.063Z,10.18
2023-05-09T06:17:08.404Z,9.45
2023-05-09T06:19:34.697Z,12.70
2023-05-09T06:22:00.937Z,12.00
2023-05-09T06:24:35.625Z,10.10
2023-05-09T06:27:02.534Z,9.88
2023-05-09T06:29:28.765Z,11.43
2023-05-09T06:31:55.072Z,11.85
2023-05-09T06:34:21.363Z,11.98
2023-05-09T06:36:47.661Z,13.40
2023-05-09T06:39:14.003Z,11.82
2023-05-09T06:41:40.254Z,11.05
2023-05-09T06:44:06.475Z,10.98
2023-05-09T06:46:32.747Z,9.65
2023-05-09T06:48:59.129Z,11.30
2023-05-09T06:51:25.358Z,14.60
2023-05-09T06:53:51.612Z,12.43
2023-05-09T06:56:19.924Z,23.88
2023-05-09T06:58:46.333Z,14.05
2023-05-09T07:01:12.577Z,13.55
2023-05-09T07:03:38.835Z,16.15
2023-05-09T07:06:05.091Z,12.63
2023-05-09T07:08:31.364Z,15.13
2023-05-09T07:10:57.597Z,20.73
2023-05-09T07:13:23.904Z,14.90
2023-05-09T07:15:50.213Z,18.15
2023-05-09T07:18:16.466Z,12.82
2023-05-09T07:20:42.809Z,12.57
2023-05-09T07:23:09.136Z,13.13
2023-05-09T07:25:35.380Z,8.95
2023-05-09T07:28:01.629Z,10.40
2023-05-09T07:30:27.907Z,10.93
2023-05-09T07:32:54.215Z,12.65
2023-05-09T07:35:20.485Z,11.05
2023-05-09T07:37:46.817Z,12.98
2023-05-09T07:40:13.446Z,12.32
2023-05-09T07:42:39.852Z,11.20
2023-05-09T07:45:06.363Z,12.25
2023-05-09T07:47:32.611Z,9.63
2023-05-09T07:49:58.867Z,9.43
2023-05-09T07:52:25.131Z,10.30
2023-05-09T07:54:51.446Z,8.02
2023-05-09T07:57:18.021Z,9.73
2023-05-09T07:59:44.357Z,14.27
2023-05-09T08:02:10.697Z,8.57
2023-05-09T08:04:37.011Z,9.32
2023-05-09T08:07:03.662Z,8.40
2023-05-09T08:09:30.004Z,9.38
2023-05-09T08:11:56.301Z,6.70
2023-05-09T08:14:22.534Z,8.13
2023-05-09T08:16:48.772Z,10.55
2023-05-09T08:19:15.045Z,8.43
2023-05-09T08:21:41.389Z,6.75
2023-05-09T08:24:07.786Z,9.13
2023-05-09T08:26:34.077Z,8.32
2023-05-09T08:29:00.305Z,10.70
2023-05-09T08:31:26.651Z,6.82
2023-05-09T08:33:52.982Z,8.27
2023-05-09T08:36:19.306Z,8.70
2023-05-09T08:38:45.537Z,9.65
2023-05-09T08:41:11.931Z,8.65
2023-05-09T08:43:38.164Z,8.48
2023-05-09T08:46:04.567Z,5.97
2023-05-09T08:48:30.877Z,8.73
2023-05-09T08:50:57.211Z,7.00
2023-05-09T08:53:23.506Z,7.38
2023-05-09T08:55:49.762Z,7.85
2023-05-09T08:58:16.003Z,7.03
2023-05-09T09:00:42.257Z,8.20
2023-05-09T09:03:08.556Z,8.68
2023-05-09T09:08:06.068Z,6.05
2023-05-09T09:10:32.323Z,7.35
2023-05-09T09:12:58.711Z,6.97
2023-05-09T09:15:25.065Z,12.23
2023-05-09T09:17:51.408Z,7.97
2023-05-09T09:20:17.765Z,9.77
2023-05-09T09:22:44.050Z,7.07
2023-05-09T09:25:10.722Z,7.45
2023-05-09T09:27:37.148Z,8.20
2023-05-09T09:30:03.371Z,12.82
2023-05-09T09:32:29.642Z,8.13
2023-05-09T09:34:55.916Z,7.10
2023-05-09T09:37:22.172Z,10.48
2023-05-09T09:39:48.384Z,6.80
2023-05-09T09:42:14.736Z,6.55
2023-05-09T09:44:41.036Z,9.38
2023-05-09T09:47:07.253Z,14.77
2023-05-09T09:49:33.519Z,7.20
2023-05-09T09:51:59.781Z,12.57
2023-05-09T09:54:26.080Z,10.77
2023-05-09T09:56:52.332Z,8.75
2023-05-09T09:59:18.564Z,9.50
2023-05-09T10:01:44.863Z,6.95
2023-05-09T10:04:11.129Z,8.75
2023-05-09T10:06:37.403Z,8.73
2023-05-09T10:09:03.658Z,8.45
2023-05-09T10:11:29.935Z,7.82
2023-05-09T10:13:56.256Z,8.13
2023-05-09T10:16:35.699Z,6.80
2023-05-09T10:19:06.430Z,10.82
2023-05-09T10:21:32.738Z,6.43
2023-05-09T10:23:59.049Z,7.68
2023-05-09T10:26:25.264Z,7.15
2023-05-09T10:28:51.514Z,6.43
2023-05-09T10:31:17.839Z,8.95
2023-05-09T10:33:44.094Z,7.05
2023-05-09T10:36:10.306Z,7.15
2023-05-09T10:38:36.586Z,7.25
2023-05-09T10:41:02.916Z,7.13
2023-05-09T10:43:29.480Z,7.65
2023-05-09T10:45:55.837Z,8.15
2023-05-09T10:48:22.110Z,11.40
2023-05-09T10:50:48.386Z,7.32
2023-05-09T10:53:14.636Z,7.93
2023-05-09T10:55:40.972Z,9.88
2023-05-09T10:58:07.244Z,8.00
2023-05-09T11:00:33.711Z,7.47
2023-05-09T11:03:00.069Z,6.78
2023-05-09T11:05:26.392Z,10.05
2023-05-09T11:07:52.650Z,10.23
2023-05-09T11:10:18.977Z,7.13
2023-05-09T11:12:45.275Z,6.10
2023-05-09T11:15:11.645Z,9.00
2023-05-09T11:17:37.998Z,10.60
2023-05-09T11:20:04.286Z,6.05
2023-05-09T11:22:30.646Z,6.68
2023-05-09T11:24:57.034Z,11.00
2023-05-09T11:27:23.286Z,7.45
2023-05-09T11:29:49.584Z,6.93
2023-05-09T11:32:15.892Z,6.82
2023-05-09T11:34:42.194Z,9.57
2023-05-09T11:37:08.424Z,7.22
2023-05-09T11:39:37.378Z,6.28
2023-05-09T11:42:03.601Z,6.88
2023-05-09T11:44:29.880Z,8.20
2023-05-09T11:46:56.142Z,7.82
2023-05-09T11:49:22.439Z,8.98
2023-05-09T11:51:48.706Z,12.20
2023-05-09T11:54:15.147Z,13.02
2023-05-09T11:56:41.562Z,16.33
2023-05-09T11:59:07.903Z,10.82
2023-05-09T12:01:34.185Z,10.18
2023-05-09T12:04:00.600Z,9.55
2023-05-09T12:06:27.268Z,8.60
2023-05-09T12:08:53.488Z,13.68
2023-05-09T12:11:19.781Z,16.58
2023-05-09T12:13:46.023Z,12.40
2023-05-09T12:16:12.285Z,19.92
2023-05-09T12:18:38.582Z,27.00
2023-05-09T12:21:04.843Z,27.17
2023-05-09T12:23:31.107Z,34.45
2023-05-09T12:25:58.559Z,45.78
2023-05-09T12:28:24.793Z,40.90
2023-05-09T12:30:51.069Z,48.88
2023-05-09T12:33:17.327Z,46.22
2023-05-09T12:35:43.666Z,51.00
2023-05-09T12:38:10.043Z,64.68
2023-05-09T12:40:36.272Z,96.82
2023-05-09T12:43:02.588Z,112.45
2023-05-09T12:45:29.118Z,101.47
2023-05-09T12:47:56.103Z,89.70
2023-05-09T12:50:22.526Z,82.85
2023-05-09T12:53:02.848Z,80.72
2023-05-09T12:55:30.784Z,78.05
2023-05-09T12:57:57.132Z,80.72
2023-05-09T13:00:23.694Z,74.25
2023-05-09T13:02:50.042Z,70.28
2023-05-09T13:05:17.250Z,73.60
2023-05-09T13:07:44.121Z,83.90
2023-05-09T13:10:11.934Z,77.20
2023-05-09T13:12:39.611Z,74.18
2023-05-09T13:15:05.860Z,73.95
2023-05-09T13:17:32.312Z,80.50
2023-05-09T13:20:00.222Z,85.85
2023-05-09T13:22:27.178Z,80.32
2023-05-09T13:24:53.549Z,74.80
2023-05-09T13:27:19.824Z,69.10
2023-05-09T13:29:46.332Z,77.53
2023-05-09T13:32:12.610Z,68.95
2023-05-09T13:34:39.012Z,74.18
2023-05-09T13:37:05.240Z,68.53
2023-05-09T13:39:31.692Z,70.90
2023-05-09T13:41:57.946Z,77.32
2023-05-09T13:44:24.177Z,81.03
2023-05-09T13:46:50.681Z,73.40
2023-05-09T13:49:16.973Z,76.32
2023-05-09T13:51:43.263Z,69.72
2023-05-09T13:54:10.454Z,68.53
2023-05-09T13:56:37.064Z,68.97
2023-05-09T13:59:03.369Z,60.50
2023-05-09T14:01:29.729Z,68.80
2023-05-09T14:03:56.204Z,69.45
2023-05-09T14:06:22.708Z,64.20
2023-05-09T14:08:49.548Z,59.95
2023-05-09T14:11:16.676Z,61.78
2023-05-09T14:13:42.914Z,55.05
2023-05-09T14:16:09.205Z,52.05
2023-05-09T14:18:35.494Z,51.80
2023-05-09T14:21:01.890Z,53.55
2023-05-09T14:23:28.128Z,45.30
2023-05-09T14:25:54.370Z,43.70
2023-05-09T14:28:21.585Z,45.80
2023-05-09T14:30:47.898Z,45.15
2023-05-09T14:33:14.217Z,47.40
2023-05-09T14:35:41.630Z,42.15
2023-05-09T14:38:08.103Z,42.72
2023-05-09T14:40:36.183Z,33.92
2023-05-09T14:43:02.922Z,35.67
2023-05-09T14:45:29.287Z,34.65
2023-05-09T14:47:55.547Z,31.08
2023-05-09T14:50:21.931Z,34.08
2023-05-09T14:52:49.876Z,26.83
2023-05-09T14:55:16.196Z,28.80
2023-05-09T14:57:42.463Z,28.60
2023-05-09T15:00:20.398Z,29.33
2023-05-09T15:02:47.899Z,33.25
2023-05-09T15:05:14.186Z,28.27
2023-05-09T15:07:40.671Z,31.95
2023-05-09T15:10:06.964Z,37.05
2023-05-09T15:12:33.231Z,29.98
2023-05-09T15:14:59.498Z,39.17
2023-05-09T15:17:25.803Z,37.88
2023-05-09T15:19:52.932Z,43.10
2023-05-09T15:22:22.124Z,41.28
2023-05-09T15:24:48.872Z,45.78
2023-05-09T15:27:15.114Z,44.33
2023-05-09T15:29:41.897Z,47.50
2023-05-09T15:32:08.442Z,47.17
2023-05-09T15:34:34.710Z,50.38
2023-05-09T15:37:00.966Z,51.08
2023-05-09T15:39:27.207Z,46.85
2023-05-09T15:41:53.536Z,47.03
2023-05-09T15:44:19.883Z,45.78
2023-05-09T15:46:46.196Z,51.92
2023-05-09T15:49:13.068Z,49.90
2023-05-09T15:51:39.330Z,47.00
2023-05-09T15:54:05.573Z,45.95
2023-05-09T15:56:32.750Z,47.15
2023-05-09T15:59:00.234Z,45.67
2023-05-09T16:01:26.593Z,42.13
2023-05-09T16:03:53.140Z,41.92
2023-05-09T16:06:19.499Z,42.53
2023-05-09T16:08:45.834Z,37.97
2023-05-09T16:11:13.497Z,40.50
2023-05-09T16:13:39.846Z,39.72
2023-05-09T16:16:06.129Z,36.15
2023-05-09T16:18:32.541Z,31.95
2023-05-09T16:20:58.801Z,32.92
2023-05-09T16:23:25.072Z,28.30
2023-05-09T16:25:51.319Z,26.23
2023-05-09T16:28:17.578Z,277.92
2023-05-09T16:30:43.884Z,326.13
2023-05-09T16:33:12.153Z,128.75
2023-05-09T16:35:38.398Z,73.07
2023-05-09T16:38:04.802Z,66.45
2023-05-09T16:40:31.553Z,45.70
2023-05-09T16:42:57.942Z,39.80
2023-05-09T16:45:24.226Z,17.17
2023-05-09T16:47:50.523Z,13.65
2023-05-09T16:50:17.772Z,12.82
2023-05-09T16:52:44.131Z,14.13
2023-05-09T16:55:10.456Z,11.77
2023-05-09T16:57:36.777Z,530.53
2023-05-09T17:00:03.825Z,436.95
2023-05-09T17:02:30.152Z,249.68
2023-05-09T17:04:57.436Z,204.60
2023-05-09T17:07:23.755Z,186.02
2023-05-09T17:09:50.031Z,170.90
2023-05-09T17:12:16.292Z,154.50
2023-05-09T17:14:42.549Z,146.73
2023-05-09T17:17:08.808Z,142.00
2023-05-09T17:19:35.184Z,129.13
2023-05-09T17:22:01.421Z,125.80
2023-05-09T17:24:27.677Z,122.40
2023-05-09T17:26:55.383Z,118.35
2023-05-09T17:32:12.302Z,105.00
2023-05-09T17:34:38.574Z,112.75
2023-05-09T17:37:04.867Z,157.35
2023-05-09T17:39:31.152Z,134.50
2023-05-09T17:41:57.505Z,118.65
2023-05-09T17:44:23.774Z,109.72
2023-05-09T17:46:50.017Z,103.38
2023-05-09T17:49:16.370Z,96.55
2023-05-09T17:51:43.240Z,95.57
2023-05-09T17:54:09.525Z,84.32
2023-05-09T17:56:35.773Z,80.47
2023-05-09T17:59:02.026Z,79.90
2023-05-09T18:01:28.401Z,91.90
2023-05-09T18:03:54.735Z,382.65
2023-05-09T18:06:21.110Z,365.17
2023-05-09T18:08:47.368Z,304.02
2023-05-09T18:11:13.665Z,259.77
2023-05-09T18:13:39.929Z,240.20
2023-05-09T18:16:06.244Z,214.55
2023-05-09T18:18:32.498Z,198.50
2023-05-09T18:20:58.813Z,190.05
2023-05-09T18:23:25.087Z,176.60
2023-05-09T18:25:52.202Z,167.57
2023-05-09T18:28:19.122Z,397.98
2023-05-09T18:30:45.471Z,523.50
2023-05-09T18:33:12.138Z,431.67
2023-05-09T18:35:38.417Z,379.20
2023-05-09T18:38:04.662Z,346.35
2023-05-09T18:40:31.468Z,321.75
2023-05-09T18:42:57.737Z,292.63
2023-05-09T18:45:23.983Z,283.80
2023-05-09T18:47:50.333Z,261.00
2023-05-09T18:50:16.827Z,240.38
2023-05-09T18:52:43.273Z,230.07
2023-05-09T18:55:09.507Z,325.40
2023-05-09T18:57:35.906Z,380.38
2023-05-09T19:00:02.191Z,350.65
2023-05-09T19:02:28.589Z,300.58
2023-05-09T19:04:54.814Z,278.88
2023-05-09T19:07:21.094Z,245.70
2023-05-09T19:09:47.338Z,231.55
2023-05-09T19:12:13.610Z,218.63
2023-05-09T19:14:40.190Z,194.60
2023-05-09T19:17:06.511Z,176.38
2023-05-09T19:19:32.842Z,165.48
2023-05-09T19:21:59.095Z,148.85
2023-05-09T19:24:25.341Z,138.20
2023-05-09T19:26:51.621Z,129.27
2023-05-09T19:29:18.009Z,125.05
2023-05-09T19:31:44.470Z,199.52
2023-05-09T19:34:10.857Z,353.42
2023-05-09T19:36:37.089Z,297.27
2023-05-09T19:39:03.862Z,263.65
2023-05-09T19:41:30.108Z,243.93
2023-05-09T19:43:56.381Z,224.48
2023-05-09T19:46:22.790Z,208.52
2023-05-09T19:48:49.420Z,193.48
2023-05-09T19:51:15.666Z,174.90
2023-05-09T19:53:41.941Z,168.88
2023-05-09T19:56:08.461Z,138.98
2023-05-09T19:58:35.960Z,256.48
2023-05-09T20:01:02.249Z,373.33
2023-05-09T20:03:28.564Z,294.65
2023-05-09T20:05:54.840Z,283.52
2023-05-09T20:08:22.398Z,267.58
2023-05-09T20:10:48.944Z,252.10
2023-05-09T20:13:15.278Z,235.40
2023-05-09T20:15:41.561Z,221.90
2023-05-09T20:18:07.821Z,208.93
2023-05-09T20:20:34.126Z,193.73
2023-05-09T20:23:00.412Z,185.43
2023-05-09T20:25:26.686Z,176.93
2023-05-09T20:27:53.128Z,164.90
2023-05-09T20:30:19.386Z,157.05
2023-05-09T20:32:45.708Z,154.70
2023-05-09T20:35:11.989Z,140.98
2023-05-09T20:37:38.326Z,129.60
2023-05-09T20:40:04.569Z,143.20
2023-05-09T20:42:30.907Z,330.50
2023-05-09T20:44:57.229Z,312.60
2023-05-09T20:47:23.568Z,274.85
2023-05-09T20:49:49.860Z,259.30
2023-05-09T20:52:16.141Z,243.27
2023-05-09T20:54:42.434Z,232.77
2023-05-09T20:57:10.149Z,213.43
2023-05-09T20:59:36.455Z,203.27
2023-05-09T21:02:02.868Z,192.07
2023-05-09T21:04:29.264Z,183.75
2023-05-09T21:06:55.496Z,168.95
2023-05-09T21:09:21.753Z,165.27
2023-05-09T21:11:48.007Z,271.85
2023-05-09T21:14:14.238Z,383.50
2023-05-09T21:16:40.601Z,348.73
2023-05-09T21:19:06.940Z,309.38
2023-05-09T21:21:33.183Z,281.08
2023-05-09T21:23:59.514Z,278.55
2023-05-09T21:26:26.063Z,266.52
2023-05-09T21:28:52.496Z,256.02
2023-05-09T21:31:18.762Z,248.32
2023-05-09T21:33:45.030Z,232.05
2023-05-09T21:36:11.352Z,222.63
2023-05-09T21:38:37.670Z,216.85
2023-05-09T21:41:03.938Z,204.00
2023-05-09T21:43:30.185Z,204.32
2023-05-09T21:45:56.452Z,357.70
2023-05-09T21:48:22.744Z,444.00
2023-05-09T21:50:49.011Z,376.67
2023-05-09T21:53:15.636Z,446.17
2023-05-09T21:55:41.870Z,513.38
2023-05-09T21:58:08.120Z,552.17
2023-05-09T22:00:34.437Z,509.33
2023-05-09T22:03:01.138Z,457.30
2023-05-09T22:05:27.925Z,450.23
2023-05-09T22:07:54.172Z,443.73
2023-05-09T22:10:20.500Z,436.48
2023-05-09T22:12:46.889Z,428.00
2023-05-09T22:15:13.253Z,424.42
2023-05-09T22:17:40.312Z,418.67
2023-05-09T22:20:06.619Z,403.55
2023-05-09T22:22:32.869Z,396.73
2023-05-09T22:24:59.152Z,398.20
2023-05-09T22:27:25.590Z,390.92
2023-05-09T22:29:51.889Z,378.27
2023-05-09T22:32:18.205Z,374.10
2023-05-09T22:34:44.451Z,369.98
2023-05-09T22:37:10.735Z,358.95
2023-05-09T22:39:37.244Z,352.67
2023-05-09T22:42:03.998Z,361.02
2023-05-09T22:44:30.314Z,340.58
2023-05-09T22:46:56.597Z,339.20
2023-05-09T22:49:22.830Z,330.73
2023-05-09T22:51:49.175Z,329.08
2023-05-09T22:54:15.420Z,323.13
2023-05-09T22:56:41.793Z,312.75
2023-05-09T22:59:08.038Z,317.58
2023-05-09T23:01:34.356Z,305.70
2023-05-09T23:04:01.058Z,303.88
2023-05-09T23:06:27.367Z,302.17
2023-05-09T23:08:54.162Z,293.55
2023-05-09T23:11:20.510Z,292.98
2023-05-09T23:13:46.917Z,290.23
2023-05-09T23:16:13.226Z,289.67
2023-05-09T23:18:39.518Z,274.65
2023-05-09T23:21:05.872Z,265.95
2023-05-09T23:23:32.160Z,264.63
2023-05-09T23:25:58.472Z,258.70
2023-05-09T23:28:24.831Z,260.35
2023-05-09T23:30:51.615Z,249.50
2023-05-09T23:33:17.911Z,245.93
2023-05-09T23:35:44.558Z,247.48
2023-05-09T23:38:12.913Z,236.45
2023-05-09T23:40:39.190Z,228.57
2023-05-09T23:43:05.480Z,232.40
2023-05-09T23:45:31.831Z,227.20
2023-05-09T23:47:58.186Z,215.20
2023-05-09T23:50:24.574Z,212.75
2023-05-09T23:52:50.821Z,213.82
2023-05-09T23:55:17.116Z,201.18
2023-05-09T23:57:45.208Z,204.90
